createdAt,value
2018-11-22T12:16:51.075Z,20.17
2018-11-22T12:19:19.540Z,19.60
2018-11-22T12:21:48.056Z,19.87
2018-11-22T12:24:16.498Z,21.53
2018-11-22T12:26:44.991Z,19.47
2018-11-22T12:29:13.445Z,21.13
2018-11-22T12:31:42.123Z,21.17
2018-11-22T12:34:14.811Z,21.20
2018-11-22T12:36:53.661Z,18.73
2018-11-22T12:39:22.599Z,20.20
2018-11-22T12:41:51.099Z,21.50
2018-11-22T12:44:19.577Z,20.23
2018-11-22T12:46:48.027Z,20.23
2018-11-22T12:49:16.532Z,20.50
2018-11-22T12:51:44.986Z,21.13
2018-11-22T12:54:13.482Z,20.57
2018-11-22T12:56:41.931Z,21.03
2018-11-22T12:59:10.403Z,20.73
2018-11-22T13:01:38.874Z,20.97
2018-11-22T13:04:07.363Z,18.77
2018-11-22T13:06:35.839Z,20.43
2018-11-22T13:09:06.203Z,20.13
2018-11-22T13:11:34.875Z,19.70
2018-11-22T13:14:03.402Z,20.87
2018-11-22T13:16:31.992Z,21.10
2018-11-22T13:19:00.460Z,20.47
2018-11-22T13:21:28.914Z,21.03
2018-11-22T13:23:57.357Z,19.73
2018-11-22T13:26:25.787Z,21.00
2018-11-22T13:28:54.234Z,19.30
2018-11-22T13:31:22.700Z,20.13
2018-11-22T13:33:51.147Z,20.57
2018-11-22T13:36:19.556Z,21.03
2018-11-22T13:38:47.999Z,19.73
2018-11-22T13:41:16.424Z,20.63
2018-11-22T13:43:44.945Z,19.60
2018-11-22T13:46:13.450Z,21.17
2018-11-22T13:48:41.989Z,19.93
2018-11-22T13:51:10.515Z,20.23
2018-11-22T13:53:39.011Z,20.67
2018-11-22T13:56:07.524Z,20.17
2018-11-22T13:58:36.069Z,19.90
2018-11-22T14:01:04.657Z,20.83
2018-11-22T14:03:33.152Z,20.03
2018-11-22T14:06:01.607Z,20.37
2018-11-22T14:08:30.260Z,21.43
2018-11-22T14:10:59.182Z,21.67
2018-11-22T14:13:27.722Z,20.97
2018-11-22T14:15:56.215Z,21.37
2018-11-22T14:18:24.671Z,21.77
2018-11-22T14:20:53.202Z,21.77
2018-11-22T14:23:21.680Z,22.77
2018-11-22T14:25:50.231Z,22.30
2018-11-22T14:28:18.732Z,20.33
2018-11-22T14:30:47.294Z,23.03
2018-11-22T14:33:15.817Z,20.67
2018-11-22T14:35:44.344Z,23.33
2018-11-22T14:38:12.815Z,23.33
2018-11-22T14:40:41.400Z,22.20
2018-11-22T14:43:09.931Z,22.13
2018-11-22T14:45:38.473Z,22.23
2018-11-22T14:48:07.009Z,22.13
2018-11-22T14:50:37.375Z,22.33
2018-11-22T14:53:11.388Z,21.27
2018-11-22T14:55:40.080Z,21.87
2018-11-22T14:58:09.252Z,22.47
2018-11-22T15:00:38.023Z,22.77
2018-11-22T15:03:06.940Z,22.37
2018-11-22T15:05:35.601Z,22.17
2018-11-22T15:08:04.338Z,21.57
2018-11-22T15:10:32.996Z,22.60
2018-11-22T15:13:01.675Z,22.67
2018-11-22T15:15:30.659Z,22.03
2018-11-22T15:17:59.383Z,23.30
2018-11-22T15:20:28.157Z,22.87
2018-11-22T15:22:56.912Z,21.70
2018-11-22T15:25:26.972Z,23.00
2018-11-22T15:27:55.948Z,23.43
2018-11-22T15:30:26.015Z,24.37
2018-11-22T15:32:54.868Z,24.43
2018-11-22T15:35:24.875Z,24.13
2018-11-22T15:37:54.053Z,22.00
2018-11-22T15:40:23.897Z,23.60
2018-11-22T15:42:54.988Z,23.83
2018-11-22T15:45:24.979Z,24.47
2018-11-22T15:47:53.733Z,21.40
2018-11-22T15:50:23.835Z,22.33
2018-11-22T15:52:52.843Z,23.47
2018-11-22T15:55:22.170Z,24.30
2018-11-22T15:57:52.147Z,22.80
2018-11-22T16:00:25.174Z,23.60
2018-11-22T16:02:54.496Z,23.90
2018-11-22T16:05:24.051Z,25.00
2018-11-22T16:07:52.854Z,25.70
2018-11-22T16:10:33.173Z,25.40
2018-11-22T16:13:04.263Z,25.83
2018-11-22T16:15:36.931Z,25.63
2018-11-22T16:18:05.951Z,27.23
2018-11-22T16:20:34.828Z,25.50
2018-11-22T16:23:03.666Z,27.03
2018-11-22T16:25:32.560Z,26.50
2018-11-22T16:28:01.333Z,26.07
2018-11-22T16:30:31.100Z,26.43
2018-11-22T16:32:59.822Z,24.90
2018-11-22T16:35:33.407Z,27.57
2018-11-22T16:37:58.218Z,27.20
